Back to Top

Language: 

My Weather Underground Personal Weather Station Historical Data with Graphs...

Delerius Weather Station Historical Data
Daily Summary for September 4, 2017 Units:  English    Metric   Both
« Previous Day
Next Day »
Daily Weekly Monthly Yearly Custom
  High: Low: Average:
Temperature: 70.5 °F 54.5 °F 62.2 °F
Dew Point: 64.1 °F 53.4 °F 58.8 °F
Humidity: 98 % 77 % 89 %
Wind Speed: 10.0 mph 0.0 mph 5 mph
Wind Gust: 21.0 mph - -
Wind:- - South
Pressure: 29.87 in 29.76 in -
Precipitation: 0.02 in    
Historical Graphs
 
 
Tabular Data for September 4, 2017
Time Temperature Dew Point Pressure Wind Wind Speed Wind Gust Humidity Rainfall Rate (Hourly) solar Conditions
00:01 54.5 °F 53.4 °F 29.79 in ESE 5.0 mph 9.0 mph 96 % 0.00 in 0 W/m2
00:07 54.5 °F 53.4 °F 29.79 in SE 4.0 mph 8.0 mph 96 % 0.00 in 0 W/m2
00:12 54.5 °F 53.4 °F 29.79 in ESE 3.0 mph 7.0 mph 96 % 0.00 in 0 W/m2
00:17 54.5 °F 53.4 °F 29.79 in SE 4.0 mph 8.0 mph 96 % 0.00 in 0 W/m2
00:22 54.5 °F 53.4 °F 29.79 in SE 5.0 mph 9.0 mph 96 % 0.01 in 0 W/m2
00:27 54.7 °F 53.6 °F 29.79 in SE 4.0 mph 9.0 mph 96 % 0.01 in 0 W/m2
00:32 54.7 °F 53.6 °F 29.80 in SE 3.0 mph 8.0 mph 96 % 0.01 in 0 W/m2
00:37 54.7 °F 53.6 °F 29.79 in SE 4.0 mph 8.0 mph 96 % 0.01 in 0 W/m2
00:42 54.7 °F 53.6 °F 29.79 in SE 5.0 mph 9.0 mph 96 % 0.01 in 0 W/m2
00:47 54.7 °F 53.6 °F 29.79 in SE 5.0 mph 9.0 mph 96 % 0.01 in 0 W/m2
00:52 54.7 °F 53.6 °F 29.79 in SE 4.0 mph 8.0 mph 96 % 0.01 in 0 W/m2
00:57 54.7 °F 53.6 °F 29.79 in ESE 3.0 mph 6.0 mph 96 % 0.01 in 0 W/m2
01:02 54.7 °F 53.6 °F 29.79 in ESE 3.0 mph 8.0 mph 96 % 0.01 in 0 W/m2
01:07 54.7 °F 53.6 °F 29.79 in SE 5.0 mph 8.0 mph 96 % 0.01 in 0 W/m2
01:12 54.7 °F 53.6 °F 29.79 in SE 5.0 mph 8.0 mph 96 % 0.01 in 0 W/m2
01:17 54.9 °F 53.7 °F 29.79 in SE 4.0 mph 9.0 mph 96 % 0.01 in 0 W/m2
01:22 54.7 °F 53.6 °F 29.79 in SE 6.0 mph 9.0 mph 96 % 0.00 in 0 W/m2
01:27 54.7 °F 53.6 °F 29.79 in SE 6.0 mph 9.0 mph 96 % 0.01 in 0 W/m2
01:28 54.7 °F 53.6 °F 29.79 in SE 5.0 mph 9.0 mph 96 % 0.01 in 0 W/m2
01:33 54.9 °F 53.7 °F 29.79 in SE 5.0 mph 9.0 mph 96 % 0.01 in 0 W/m2
01:38 54.9 °F 53.7 °F 29.78 in SE 6.0 mph 10.0 mph 96 % 0.01 in 0 W/m2
01:43 54.9 °F 53.7 °F 29.78 in SE 6.0 mph 10.0 mph 96 % 0.01 in 0 W/m2
01:48 54.9 °F 53.7 °F 29.78 in SE 6.0 mph 12.0 mph 96 % 0.01 in 0 W/m2
01:53 54.9 °F 53.7 °F 29.78 in SE 5.0 mph 12.0 mph 96 % 0.01 in 0 W/m2
01:58 54.9 °F 53.7 °F 29.78 in SE 5.0 mph 11.0 mph 96 % 0.01 in 0 W/m2
02:03 54.9 °F 53.7 °F 29.78 in SE 5.0 mph 11.0 mph 96 % 0.01 in 0 W/m2
02:08 54.9 °F 54.0 °F 29.78 in SE 5.0 mph 9.0 mph 97 % 0.01 in 0 W/m2
02:13 54.9 °F 54.0 °F 29.77 in ESE 5.0 mph 9.0 mph 97 % 0.01 in 0 W/m2
02:18 54.9 °F 54.0 °F 29.77 in ESE 5.0 mph 9.0 mph 97 % 0.01 in 0 W/m2
02:23 54.9 °F 54.0 °F 29.77 in ESE 5.0 mph 9.0 mph 97 % 0.01 in 0 W/m2
02:28 54.9 °F 54.0 °F 29.77 in ESE 4.0 mph 9.0 mph 97 % 0.00 in 0 W/m2
02:33 54.9 °F 54.0 °F 29.78 in ESE 4.0 mph 9.0 mph 97 % 0.00 in 0 W/m2
02:38 54.9 °F 54.0 °F 29.78 in ESE 4.0 mph 9.0 mph 97 % 0.00 in 0 W/m2
02:43 54.9 °F 54.0 °F 29.77 in ESE 5.0 mph 9.0 mph 97 % 0.00 in 0 W/m2
02:48 54.9 °F 54.0 °F 29.77 in ESE 6.0 mph 10.0 mph 97 % 0.00 in 0 W/m2
02:53 54.9 °F 54.0 °F 29.77 in ESE 6.0 mph 11.0 mph 97 % 0.00 in 0 W/m2
02:58 54.9 °F 54.0 °F 29.77 in SE 5.0 mph 11.0 mph 97 % 0.00 in 0 W/m2
03:03 54.9 °F 54.0 °F 29.77 in SE 6.0 mph 10.0 mph 97 % 0.00 in 0 W/m2
03:08 54.9 °F 54.0 °F 29.77 in SE 5.0 mph 10.0 mph 97 % 0.00 in 0 W/m2
03:13 55.0 °F 54.2 °F 29.77 in SE 5.0 mph 9.0 mph 97 % 0.00 in 0 W/m2
03:18 55.0 °F 54.2 °F 29.77 in SE 5.0 mph 9.0 mph 97 % 0.00 in 0 W/m2
03:23 55.0 °F 54.2 °F 29.77 in SE 5.0 mph 10.0 mph 97 % 0.00 in 0 W/m2
03:28 55.0 °F 54.2 °F 29.78 in ESE 4.0 mph 10.0 mph 97 % 0.00 in 0 W/m2
03:33 55.0 °F 54.2 °F 29.77 in ESE 3.0 mph 8.0 mph 97 % 0.00 in 0 W/m2
03:35 55.0 °F 54.2 °F 29.78 in ESE 3.0 mph 8.0 mph 97 % 0.00 in 0 W/m2
03:40 55.0 °F 54.2 °F 29.77 in SE 3.0 mph 8.0 mph 97 % 0.00 in 0 W/m2
03:45 55.0 °F 54.2 °F 29.77 in SE 4.0 mph 7.0 mph 97 % 0.00 in 0 W/m2
03:50 55.0 °F 54.2 °F 29.77 in SE 5.0 mph 8.0 mph 97 % 0.00 in 0 W/m2
03:55 55.0 °F 54.2 °F 29.77 in SE 4.0 mph 8.0 mph 97 % 0.00 in 0 W/m2
04:00 55.0 °F 54.2 °F 29.77 in SE 2.0 mph 6.0 mph 97 % 0.00 in 0 W/m2
04:05 55.0 °F 54.2 °F 29.77 in SE 2.0 mph 6.0 mph 97 % 0.00 in 0 W/m2
04:10 55.0 °F 54.2 °F 29.77 in SE 3.0 mph 6.0 mph 97 % 0.00 in 0 W/m2
04:15 55.0 °F 54.2 °F 29.77 in SSE 3.0 mph 6.0 mph 97 % 0.00 in 0 W/m2
04:19 55.0 °F 54.2 °F 29.77 in SSE 3.0 mph 7.0 mph 97 % 0.00 in 0 W/m2
04:20 55.0 °F 54.2 °F 29.77 in SSE 3.0 mph 7.0 mph 97 % 0.00 in 0 W/m2
04:23 55.0 °F 54.2 °F 29.77 in SSE 3.0 mph 7.0 mph 97 % 0.00 in 0 W/m2
04:24 55.2 °F 54.4 °F 29.77 in SSE 3.0 mph 7.0 mph 97 % 0.00 in 0 W/m2
04:28 55.0 °F 54.2 °F 29.77 in SE 3.0 mph 7.0 mph 97 % 0.00 in 0 W/m2
04:33 55.2 °F 54.4 °F 29.77 in SE 3.0 mph 6.0 mph 97 % 0.00 in 0 W/m2
04:38 55.2 °F 54.4 °F 29.77 in ESE 3.0 mph 6.0 mph 97 % 0.00 in 0 W/m2
04:43 55.2 °F 54.4 °F 29.77 in SE 3.0 mph 6.0 mph 97 % 0.00 in 0 W/m2
04:48 55.2 °F 54.4 °F 29.77 in SE 4.0 mph 6.0 mph 97 % 0.00 in 0 W/m2
04:53 55.2 °F 54.4 °F 29.77 in SE 4.0 mph 6.0 mph 97 % 0.00 in 0 W/m2
04:58 55.2 °F 54.4 °F 29.77 in SE 3.0 mph 7.0 mph 97 % 0.00 in 0 W/m2
05:03 55.2 °F 54.4 °F 29.77 in SE 3.0 mph 7.0 mph 97 % 0.00 in 0 W/m2
05:08 55.2 °F 54.4 °F 29.77 in SE 3.0 mph 7.0 mph 97 % 0.00 in 0 W/m2
05:13 55.2 °F 54.4 °F 29.77 in SE 4.0 mph 7.0 mph 97 % 0.00 in 0 W/m2
05:18 55.2 °F 54.4 °F 29.77 in SE 4.0 mph 7.0 mph 97 % 0.00 in 0 W/m2
05:23 55.2 °F 54.4 °F 29.77 in ESE 3.0 mph 7.0 mph 97 % 0.00 in 0 W/m2
05:28 55.2 °F 54.4 °F 29.77 in SE 3.0 mph 6.0 mph 97 % 0.00 in 0 W/m2
05:33 55.2 °F 54.4 °F 29.77 in SE 3.0 mph 6.0 mph 97 % 0.00 in 0 W/m2
05:38 55.2 °F 54.4 °F 29.77 in SE 3.0 mph 6.0 mph 97 % 0.00 in 0 W/m2
05:43 55.2 °F 54.4 °F 29.77 in ESE 3.0 mph 7.0 mph 97 % 0.00 in 0 W/m2
05:44 55.2 °F 54.4 °F 29.77 in ESE 3.0 mph 7.0 mph 97 % 0.00 in 0 W/m2
05:49 55.2 °F 54.4 °F 29.77 in ESE 3.0 mph 7.0 mph 97 % 0.00 in 0 W/m2
05:54 55.4 °F 54.6 °F 29.77 in ESE 3.0 mph 6.0 mph 97 % 0.00 in 0 W/m2
05:59 55.4 °F 54.6 °F 29.77 in ESE 3.0 mph 7.0 mph 97 % 0.00 in 0 W/m2
06:04 55.4 °F 54.6 °F 29.77 in ESE 3.0 mph 7.0 mph 97 % 0.00 in 0 W/m2
06:05 55.4 °F 54.6 °F 29.77 in ESE 3.0 mph 7.0 mph 97 % 0.00 in 0 W/m2
06:10 55.4 °F 54.6 °F 29.77 in East 2.0 mph 6.0 mph 97 % 0.00 in 0 W/m2
06:15 55.4 °F 54.6 °F 29.77 in ESE 2.0 mph 6.0 mph 97 % 0.00 in 0 W/m2
06:20 55.6 °F 54.7 °F 29.77 in SE 3.0 mph 9.0 mph 97 % 0.00 in 0 W/m2
06:25 55.6 °F 54.7 °F 29.77 in SE 4.0 mph 9.0 mph 97 % 0.00 in 0 W/m2
06:31 55.6 °F 54.7 °F 29.77 in SE 2.0 mph 6.0 mph 97 % 0.00 in 0 W/m2
06:36 55.6 °F 54.7 °F 29.77 in SE 1.0 mph 5.0 mph 97 % 0.00 in 0 W/m2
06:41 55.6 °F 54.7 °F 29.77 in SE 2.0 mph 6.0 mph 97 % 0.00 in 0 W/m2
06:46 55.6 °F 54.7 °F 29.77 in SE 3.0 mph 6.0 mph 97 % 0.00 in 0 W/m2
06:51 55.6 °F 54.7 °F 29.77 in SE 3.0 mph 6.0 mph 97 % 0.00 in 5 W/m2
06:56 55.8 °F 54.9 °F 29.76 in SE 3.0 mph 6.0 mph 97 % 0.00 in 7 W/m2
07:01 55.8 °F 54.9 °F 29.77 in SE 3.0 mph 8.0 mph 97 % 0.00 in 7 W/m2
07:06 55.8 °F 54.9 °F 29.76 in SE 3.0 mph 8.0 mph 97 % 0.00 in 9 W/m2
07:11 55.8 °F 54.9 °F 29.76 in SE 4.0 mph 7.0 mph 97 % 0.00 in 9 W/m2
07:16 55.8 °F 54.9 °F 29.76 in SE 3.0 mph 7.0 mph 97 % 0.00 in 11 W/m2
07:21 55.9 °F 55.1 °F 29.76 in SE 3.0 mph 8.0 mph 97 % 0.00 in 16 W/m2
07:26 55.9 °F 55.1 °F 29.76 in SE 5.0 mph 8.0 mph 97 % 0.00 in 39 W/m2
07:31 55.9 °F 55.1 °F 29.76 in SE 5.0 mph 8.0 mph 97 % 0.00 in 54 W/m2
07:36 56.1 °F 55.3 °F 29.77 in SSE 5.0 mph 8.0 mph 97 % 0.00 in 37 W/m2
07:41 56.1 °F 55.3 °F 29.77 in SSE 5.0 mph 8.0 mph 97 % 0.00 in 37 W/m2
07:46 56.3 °F 55.5 °F 29.77 in SE 5.0 mph 8.0 mph 97 % 0.00 in 39 W/m2
07:51 56.3 °F 55.5 °F 29.77 in SSE 5.0 mph 9.0 mph 97 % 0.00 in 35 W/m2
07:56 56.5 °F 55.6 °F 29.78 in South 4.0 mph 9.0 mph 97 % 0.00 in 39 W/m2
08:01 56.5 °F 55.6 °F 29.78 in South 2.0 mph 6.0 mph 97 % 0.00 in 40 W/m2
08:06 56.7 °F 56.1 °F 29.79 in South 3.0 mph 7.0 mph 98 % 0.00 in 35 W/m2
08:11 56.7 °F 56.1 °F 29.79 in South 4.0 mph 7.0 mph 98 % 0.00 in 30 W/m2
08:16 56.7 °F 56.1 °F 29.79 in South 4.0 mph 7.0 mph 98 % 0.00 in 37 W/m2
08:21 56.7 °F 56.1 °F 29.79 in SSW 3.0 mph 7.0 mph 98 % 0.00 in 40 W/m2
08:26 56.8 °F 56.3 °F 29.79 in SSW 2.0 mph 6.0 mph 98 % 0.00 in 44 W/m2
08:31 56.8 °F 56.0 °F 29.79 in SSW 1.0 mph 6.0 mph 97 % 0.00 in 53 W/m2
08:36 56.8 °F 56.0 °F 29.79 in SSW 1.0 mph 5.0 mph 97 % 0.00 in 46 W/m2
08:41 56.8 °F 56.0 °F 29.79 in SSW 1.0 mph 5.0 mph 97 % 0.00 in 47 W/m2
08:46 57.0 °F 56.2 °F 29.80 in SSW 1.0 mph 5.0 mph 97 % 0.00 in 54 W/m2
08:51 57.0 °F 56.2 °F 29.79 in SSW 2.0 mph 5.0 mph 97 % 0.00 in 120 W/m2
08:56 57.2 °F 56.6 °F 29.79 in SSW 3.0 mph 6.0 mph 98 % 0.00 in 141 W/m2
09:01 57.4 °F 56.8 °F 29.79 in SSE 4.0 mph 7.0 mph 98 % 0.00 in 185 W/m2
09:06 57.6 °F 57.0 °F 29.80 in SE 5.0 mph 8.0 mph 98 % 0.00 in 176 W/m2
09:11 57.7 °F 57.2 °F 29.80 in SE 5.0 mph 8.0 mph 98 % 0.00 in 142 W/m2
09:16 57.9 °F 57.4 °F 29.80 in SE 3.0 mph 8.0 mph 98 % 0.00 in 137 W/m2
09:21 58.1 °F 57.5 °F 29.80 in SE 3.0 mph 8.0 mph 98 % 0.00 in 158 W/m2
09:26 58.3 °F 57.7 °F 29.80 in SSE 4.0 mph 8.0 mph 98 % 0.00 in 206 W/m2
09:31 58.3 °F 57.7 °F 29.80 in SSE 4.0 mph 8.0 mph 98 % 0.00 in 178 W/m2
09:36 58.5 °F 57.9 °F 29.80 in SSE 5.0 mph 8.0 mph 98 % 0.00 in 156 W/m2
09:41 58.5 °F 57.9 °F 29.80 in SSE 5.0 mph 8.0 mph 98 % 0.00 in 169 W/m2
09:46 58.6 °F 58.1 °F 29.80 in SSE 4.0 mph 8.0 mph 98 % 0.00 in 141 W/m2
09:51 58.6 °F 57.8 °F 29.80 in SE 4.0 mph 7.0 mph 97 % 0.00 in 125 W/m2
09:56 58.8 °F 58.0 °F 29.80 in SE 4.0 mph 7.0 mph 97 % 0.00 in 137 W/m2
10:01 59.0 °F 58.4 °F 29.80 in SE 3.0 mph 7.0 mph 98 % 0.00 in 174 W/m2
10:06 59.2 °F 58.6 °F 29.80 in SE 4.0 mph 7.0 mph 98 % 0.00 in 190 W/m2
10:11 59.4 °F 58.5 °F 29.80 in SE 4.0 mph 7.0 mph 97 % 0.00 in 279 W/m2
10:16 59.7 °F 59.2 °F 29.80 in SE 3.0 mph 7.0 mph 98 % 0.00 in 251 W/m2
10:21 59.9 °F 59.0 °F 29.80 in SE 4.0 mph 7.0 mph 97 % 0.00 in 276 W/m2
10:26 60.3 °F 59.4 °F 29.80 in SE 4.0 mph 7.0 mph 97 % 0.00 in 336 W/m2
10:31 60.4 °F 59.6 °F 29.80 in SE 4.0 mph 6.0 mph 97 % 0.00 in 250 W/m2
10:36 60.6 °F 59.8 °F 29.80 in ESE 4.0 mph 6.0 mph 97 % 0.00 in 163 W/m2
10:41 60.6 °F 59.8 °F 29.80 in ESE 4.0 mph 7.0 mph 97 % 0.00 in 200 W/m2
10:46 60.8 °F 59.9 °F 29.80 in SE 4.0 mph 7.0 mph 97 % 0.00 in 192 W/m2
10:51 61.0 °F 59.8 °F 29.80 in SE 4.0 mph 8.0 mph 96 % 0.00 in 221 W/m2
10:56 61.2 °F 60.0 °F 29.80 in SSE 5.0 mph 8.0 mph 96 % 0.00 in 257 W/m2
11:01 61.3 °F 60.2 °F 29.81 in SSE 5.0 mph 9.0 mph 96 % 0.00 in 308 W/m2
11:06 61.7 °F 60.5 °F 29.81 in South 5.0 mph 9.0 mph 96 % 0.00 in 510 W/m2
11:11 62.1 °F 60.6 °F 29.81 in SSE 5.0 mph 9.0 mph 95 % 0.00 in 343 W/m2
11:16 62.4 °F 61.0 °F 29.81 in SSE 5.0 mph 10.0 mph 95 % 0.00 in 274 W/m2
11:21 62.6 °F 60.8 °F 29.81 in SSE 5.0 mph 10.0 mph 94 % 0.00 in 311 W/m2
11:26 63.0 °F 61.2 °F 29.81 in SSE 5.0 mph 10.0 mph 94 % 0.00 in 246 W/m2
11:31 63.0 °F 60.9 °F 29.81 in SSE 5.0 mph 10.0 mph 93 % 0.00 in 239 W/m2
11:36 63.3 °F 61.3 °F 29.82 in SE 4.0 mph 8.0 mph 93 % 0.00 in 195 W/m2
11:41 63.5 °F 61.4 °F 29.82 in SE 2.0 mph 8.0 mph 93 % 0.00 in 223 W/m2
11:46 63.7 °F 61.3 °F 29.82 in SE 2.0 mph 5.0 mph 92 % 0.00 in 229 W/m2
11:51 63.9 °F 61.5 °F 29.82 in South 3.0 mph 7.0 mph 92 % 0.00 in 265 W/m2
11:56 64.0 °F 61.4 °F 29.82 in South 4.0 mph 7.0 mph 91 % 0.00 in 364 W/m2
12:01 64.6 °F 62.2 °F 29.82 in South 4.0 mph 8.0 mph 92 % 0.00 in 508 W/m2
12:06 64.9 °F 62.2 °F 29.81 in South 5.0 mph 9.0 mph 91 % 0.00 in 411 W/m2
12:11 65.5 °F 62.5 °F 29.81 in South 6.0 mph 10.0 mph 90 % 0.00 in 445 W/m2
12:16 65.8 °F 62.2 °F 29.81 in South 6.0 mph 11.0 mph 88 % 0.00 in 543 W/m2
12:21 66.6 °F 63.2 °F 29.81 in South 6.0 mph 11.0 mph 89 % 0.00 in 809 W/m2
12:26 67.1 °F 63.1 °F 29.81 in South 6.0 mph 10.0 mph 87 % 0.00 in 483 W/m2
12:32 67.5 °F 63.5 °F 29.81 in SSE 7.0 mph 12.0 mph 87 % 0.00 in 680 W/m2
12:37 68.0 °F 63.3 °F 29.80 in South 7.0 mph 13.0 mph 85 % 0.00 in 663 W/m2
12:42 68.4 °F 63.3 °F 29.80 in South 7.0 mph 13.0 mph 84 % 0.00 in 520 W/m2
12:53 68.7 °F 63.3 °F 29.80 in South 7.0 mph 11.0 mph 83 % 0.00 in 686 W/m2
12:58 69.1 °F 63.7 °F 29.80 in SSW 6.0 mph 11.0 mph 83 % 0.00 in 635 W/m2
13:03 69.4 °F 63.7 °F 29.80 in South 6.0 mph 11.0 mph 82 % 0.00 in 684 W/m2
13:04 69.6 °F 63.9 °F 29.80 in South 6.0 mph 11.0 mph 82 % 0.00 in 543 W/m2
13:09 69.6 °F 63.5 °F 29.79 in South 6.0 mph 10.0 mph 81 % 0.00 in 366 W/m2
13:14 69.8 °F 63.7 °F 29.79 in South 6.0 mph 12.0 mph 81 % 0.00 in 475 W/m2
13:19 69.8 °F 63.7 °F 29.79 in SSW 7.0 mph 12.0 mph 81 % 0.00 in 244 W/m2
13:24 69.4 °F 63.4 °F 29.80 in South 7.0 mph 11.0 mph 81 % 0.00 in 237 W/m2
13:29 69.4 °F 63.4 °F 29.79 in SSE 6.0 mph 10.0 mph 81 % 0.00 in 276 W/m2
13:34 69.4 °F 63.4 °F 29.80 in South 6.0 mph 12.0 mph 81 % 0.00 in 178 W/m2
13:39 69.3 °F 63.2 °F 29.79 in SSE 7.0 mph 12.0 mph 81 % 0.00 in 220 W/m2
13:44 69.3 °F 63.5 °F 29.79 in SSE 7.0 mph 11.0 mph 82 % 0.00 in 357 W/m2
13:49 69.4 °F 63.7 °F 29.79 in SSE 7.0 mph 10.0 mph 82 % 0.00 in 323 W/m2
13:54 69.6 °F 63.9 °F 29.79 in SSE 6.0 mph 10.0 mph 82 % 0.00 in 313 W/m2
13:59 69.8 °F 64.1 °F 29.79 in SSE 5.0 mph 9.0 mph 82 % 0.00 in 295 W/m2
14:04 70.2 °F 63.7 °F 29.79 in South 6.0 mph 11.0 mph 80 % 0.00 in 325 W/m2
14:10 70.3 °F 63.9 °F 29.80 in SSW 7.0 mph 12.0 mph 80 % 0.00 in 265 W/m2
14:14 70.5 °F 63.7 °F 29.80 in SSW 7.0 mph 12.0 mph 79 % 0.00 in 338 W/m2
14:19 70.5 °F 63.3 °F 29.80 in SSW 8.0 mph 13.0 mph 78 % 0.00 in 234 W/m2
14:25 70.5 °F 63.7 °F 29.80 in SSW 9.0 mph 16.0 mph 79 % 0.00 in 301 W/m2
14:30 70.2 °F 63.3 °F 29.80 in SSW 9.0 mph 16.0 mph 79 % 0.00 in 260 W/m2
14:35 70.2 °F 63.3 °F 29.80 in SSW 8.0 mph 16.0 mph 79 % 0.00 in 257 W/m2
14:40 70.2 °F 63.3 °F 29.80 in SSW 8.0 mph 14.0 mph 79 % 0.00 in 258 W/m2
14:45 70.0 °F 63.2 °F 29.80 in SSW 8.0 mph 14.0 mph 79 % 0.00 in 244 W/m2
14:47 70.0 °F 63.5 °F 29.80 in SSW 8.0 mph 14.0 mph 80 % 0.00 in 218 W/m2
14:57 69.8 °F 63.3 °F 29.80 in SSW 8.0 mph 14.0 mph 80 % 0.00 in 260 W/m2
15:02 69.6 °F 63.5 °F 29.80 in SSW 8.0 mph 14.0 mph 81 % 0.00 in 165 W/m2
15:07 69.4 °F 63.4 °F 29.80 in SSW 8.0 mph 14.0 mph 81 % 0.00 in 220 W/m2
15:12 69.4 °F 63.4 °F 29.80 in SSW 8.0 mph 14.0 mph 81 % 0.00 in 172 W/m2
15:17 69.4 °F 63.4 °F 29.80 in SSW 7.0 mph 14.0 mph 81 % 0.00 in 295 W/m2
15:22 69.6 °F 63.5 °F 29.80 in South 6.0 mph 13.0 mph 81 % 0.00 in 127 W/m2
15:27 69.6 °F 63.5 °F 29.80 in SSW 7.0 mph 11.0 mph 81 % 0.00 in 186 W/m2
15:33 69.8 °F 63.7 °F 29.80 in SSW 8.0 mph 14.0 mph 81 % 0.00 in 155 W/m2
15:38 70.0 °F 63.5 °F 29.80 in SW 8.0 mph 14.0 mph 80 % 0.00 in 267 W/m2
15:43 70.2 °F 63.7 °F 29.80 in SW 8.0 mph 13.0 mph 80 % 0.00 in 323 W/m2
15:48 70.3 °F 63.9 °F 29.80 in SSW 8.0 mph 14.0 mph 80 % 0.00 in 213 W/m2
15:53 70.2 °F 63.3 °F 29.80 in SSW 9.0 mph 20.0 mph 79 % 0.00 in 207 W/m2
15:58 70.0 °F 63.2 °F 29.80 in SSW 9.0 mph 20.0 mph 79 % 0.00 in 158 W/m2
16:03 70.0 °F 63.5 °F 29.80 in SSW 8.0 mph 14.0 mph 80 % 0.00 in 156 W/m2
16:08 69.8 °F 63.7 °F 29.80 in SSW 7.0 mph 12.0 mph 81 % 0.00 in 130 W/m2
16:13 69.8 °F 63.7 °F 29.80 in SSW 7.0 mph 11.0 mph 81 % 0.00 in 141 W/m2
16:18 69.6 °F 63.5 °F 29.80 in SSW 8.0 mph 12.0 mph 81 % 0.00 in 165 W/m2
16:23 69.6 °F 63.5 °F 29.80 in SSW 8.0 mph 13.0 mph 81 % 0.00 in 202 W/m2
16:28 69.6 °F 63.5 °F 29.80 in SSW 7.0 mph 13.0 mph 81 % 0.00 in 171 W/m2
16:33 69.6 °F 63.2 °F 29.80 in South 6.0 mph 12.0 mph 80 % 0.00 in 72 W/m2
16:38 69.6 °F 63.2 °F 29.80 in South 7.0 mph 12.0 mph 80 % 0.00 in 90 W/m2
16:43 69.4 °F 63.0 °F 29.80 in SSW 7.0 mph 12.0 mph 80 % 0.00 in 95 W/m2
16:48 69.4 °F 63.4 °F 29.80 in SSW 6.0 mph 12.0 mph 81 % 0.00 in 77 W/m2
16:53 69.4 °F 63.4 °F 29.80 in SSW 4.0 mph 10.0 mph 81 % 0.00 in 113 W/m2
16:58 69.4 °F 63.4 °F 29.80 in South 5.0 mph 10.0 mph 81 % 0.00 in 118 W/m2
17:03 69.6 °F 63.5 °F 29.80 in South 5.0 mph 10.0 mph 81 % 0.00 in 97 W/m2
17:08 69.6 °F 63.5 °F 29.80 in SSW 5.0 mph 10.0 mph 81 % 0.00 in 91 W/m2
17:13 69.6 °F 63.5 °F 29.80 in SSW 6.0 mph 10.0 mph 81 % 0.00 in 77 W/m2
17:18 69.6 °F 63.5 °F 29.80 in SSW 6.0 mph 11.0 mph 81 % 0.00 in 104 W/m2
17:23 69.6 °F 63.5 °F 29.80 in South 7.0 mph 15.0 mph 81 % 0.00 in 100 W/m2
17:28 69.6 °F 63.5 °F 29.80 in SSW 7.0 mph 15.0 mph 81 % 0.00 in 69 W/m2
17:33 69.6 °F 63.5 °F 29.81 in SSW 6.0 mph 10.0 mph 81 % 0.00 in 39 W/m2
17:34 69.6 °F 63.5 °F 29.81 in SSW 5.0 mph 10.0 mph 81 % 0.00 in 39 W/m2
17:39 69.4 °F 63.4 °F 29.81 in SSW 6.0 mph 10.0 mph 81 % 0.00 in 51 W/m2
17:44 69.4 °F 63.4 °F 29.81 in SSW 6.0 mph 10.0 mph 81 % 0.00 in 58 W/m2
17:49 69.4 °F 63.7 °F 29.81 in SW 5.0 mph 9.0 mph 82 % 0.00 in 81 W/m2
17:54 69.4 °F 63.4 °F 29.81 in SW 6.0 mph 14.0 mph 81 % 0.00 in 90 W/m2
17:59 69.4 °F 63.4 °F 29.81 in SW 6.0 mph 14.0 mph 81 % 0.00 in 93 W/m2
18:04 69.4 °F 63.0 °F 29.80 in SW 6.0 mph 10.0 mph 80 % 0.00 in 70 W/m2
18:09 69.4 °F 63.0 °F 29.81 in SW 6.0 mph 12.0 mph 80 % 0.00 in 58 W/m2
18:14 69.4 °F 63.0 °F 29.80 in SW 7.0 mph 14.0 mph 80 % 0.00 in 60 W/m2
18:19 69.4 °F 63.0 °F 29.81 in SW 6.0 mph 14.0 mph 80 % 0.00 in 69 W/m2
18:24 69.4 °F 63.0 °F 29.81 in SW 7.0 mph 10.0 mph 80 % 0.00 in 69 W/m2
18:29 69.4 °F 63.0 °F 29.81 in SW 7.0 mph 12.0 mph 80 % 0.00 in 40 W/m2
18:34 69.3 °F 62.5 °F 29.82 in SW 8.0 mph 13.0 mph 79 % 0.00 in 33 W/m2
18:39 69.3 °F 62.1 °F 29.82 in WSW 8.0 mph 15.0 mph 78 % 0.00 in 35 W/m2
18:44 69.3 °F 62.1 °F 29.82 in WSW 9.0 mph 21.0 mph 78 % 0.00 in 39 W/m2
18:49 69.1 °F 61.9 °F 29.82 in WSW 10.0 mph 21.0 mph 78 % 0.00 in 37 W/m2
18:54 68.9 °F 61.8 °F 29.82 in SW 9.0 mph 15.0 mph 78 % 0.00 in 30 W/m2
18:59 68.7 °F 61.2 °F 29.82 in WSW 9.0 mph 15.0 mph 77 % 0.00 in 28 W/m2
19:04 68.7 °F 61.2 °F 29.82 in WSW 9.0 mph 15.0 mph 77 % 0.00 in 19 W/m2
19:09 68.5 °F 61.4 °F 29.82 in SW 9.0 mph 15.0 mph 78 % 0.00 in 9 W/m2
19:14 68.4 °F 61.2 °F 29.82 in SW 9.0 mph 16.0 mph 78 % 0.00 in 9 W/m2
19:19 68.2 °F 61.1 °F 29.82 in WSW 10.0 mph 16.0 mph 78 % 0.00 in 11 W/m2
19:24 68.2 °F 61.1 °F 29.82 in WSW 9.0 mph 16.0 mph 78 % 0.00 in 9 W/m2
19:29 68.0 °F 61.2 °F 29.83 in WSW 8.0 mph 13.0 mph 79 % 0.00 in 5 W/m2
19:34 67.8 °F 61.1 °F 29.82 in WSW 8.0 mph 13.0 mph 79 % 0.00 in 5 W/m2
19:39 67.6 °F 60.9 °F 29.82 in WSW 8.0 mph 13.0 mph 79 % 0.00 in 0 W/m2
19:44 67.6 °F 61.2 °F 29.82 in WSW 7.0 mph 13.0 mph 80 % 0.00 in 0 W/m2
19:49 67.5 °F 61.1 °F 29.82 in WSW 7.0 mph 12.0 mph 80 % 0.00 in 0 W/m2
19:54 67.5 °F 61.1 °F 29.83 in WSW 7.0 mph 14.0 mph 80 % 0.00 in 0 W/m2
19:59 67.3 °F 60.9 °F 29.83 in WSW 7.0 mph 14.0 mph 80 % 0.00 in 0 W/m2
20:04 67.3 °F 61.2 °F 29.83 in WSW 6.0 mph 12.0 mph 81 % 0.00 in 0 W/m2
20:09 67.1 °F 61.1 °F 29.83 in WSW 5.0 mph 10.0 mph 81 % 0.00 in 0 W/m2
20:14 67.1 °F 61.1 °F 29.84 in WSW 6.0 mph 11.0 mph 81 % 0.00 in 0 W/m2
20:19 66.9 °F 60.9 °F 29.84 in WSW 7.0 mph 14.0 mph 81 % 0.00 in 0 W/m2
20:24 66.9 °F 60.9 °F 29.84 in WSW 8.0 mph 15.0 mph 81 % 0.00 in 0 W/m2
20:29 66.9 °F 60.9 °F 29.84 in WSW 10.0 mph 15.0 mph 81 % 0.00 in 0 W/m2
20:34 66.9 °F 60.9 °F 29.84 in WSW 10.0 mph 15.0 mph 81 % 0.00 in 0 W/m2
20:39 66.9 °F 60.9 °F 29.84 in WSW 9.0 mph 14.0 mph 81 % 0.00 in 0 W/m2
20:44 66.7 °F 61.1 °F 29.85 in WSW 9.0 mph 15.0 mph 82 % 0.00 in 0 W/m2
20:49 66.7 °F 61.1 °F 29.85 in WSW 9.0 mph 15.0 mph 82 % 0.00 in 0 W/m2
20:54 66.7 °F 61.1 °F 29.85 in WSW 8.0 mph 12.0 mph 82 % 0.00 in 0 W/m2
20:59 66.6 °F 60.9 °F 29.85 in SW 7.0 mph 13.0 mph 82 % 0.00 in 0 W/m2
21:04 66.6 °F 60.9 °F 29.86 in SW 7.0 mph 13.0 mph 82 % 0.00 in 0 W/m2
21:09 66.6 °F 60.9 °F 29.86 in SW 6.0 mph 9.0 mph 82 % 0.00 in 0 W/m2
21:14 66.6 °F 60.9 °F 29.86 in WSW 4.0 mph 9.0 mph 82 % 0.00 in 0 W/m2
21:19 66.6 °F 60.9 °F 29.86 in WSW 3.0 mph 8.0 mph 82 % 0.00 in 0 W/m2
21:24 66.4 °F 60.4 °F 29.86 in WSW 4.0 mph 9.0 mph 81 % 0.00 in 0 W/m2
21:29 66.4 °F 60.4 °F 29.86 in WSW 5.0 mph 9.0 mph 81 % 0.00 in 0 W/m2
21:34 66.0 °F 60.4 °F 29.86 in WSW 6.0 mph 10.0 mph 82 % 0.00 in 0 W/m2
21:39 66.0 °F 60.4 °F 29.85 in WSW 6.0 mph 12.0 mph 82 % 0.00 in 0 W/m2
21:44 65.8 °F 60.2 °F 29.86 in WSW 5.0 mph 12.0 mph 82 % 0.00 in 0 W/m2
21:49 65.8 °F 60.5 °F 29.86 in WSW 4.0 mph 8.0 mph 83 % 0.00 in 0 W/m2
21:54 65.8 °F 60.5 °F 29.86 in West 3.0 mph 8.0 mph 83 % 0.00 in 0 W/m2
21:59 65.7 °F 60.4 °F 29.86 in West 2.0 mph 9.0 mph 83 % 0.00 in 0 W/m2
22:04 65.7 °F 60.4 °F 29.86 in West 5.0 mph 11.0 mph 83 % 0.00 in 0 W/m2
22:09 65.5 °F 60.5 °F 29.86 in WNW 5.0 mph 11.0 mph 84 % 0.00 in 0 W/m2
22:14 65.5 °F 60.5 °F 29.86 in WNW 4.0 mph 8.0 mph 84 % 0.00 in 0 W/m2
22:19 65.3 °F 60.3 °F 29.86 in WNW 4.0 mph 7.0 mph 84 % 0.00 in 0 W/m2
22:24 65.1 °F 60.2 °F 29.86 in West 5.0 mph 8.0 mph 84 % 0.00 in 0 W/m2
22:29 65.1 °F 60.2 °F 29.86 in West 5.0 mph 8.0 mph 84 % 0.00 in 0 W/m2
22:34 65.1 °F 60.5 °F 29.86 in West 5.0 mph 7.0 mph 85 % 0.00 in 0 W/m2
22:39 65.1 °F 60.5 °F 29.86 in WSW 5.0 mph 8.0 mph 85 % 0.00 in 0 W/m2
22:44 64.9 °F 60.3 °F 29.86 in WSW 5.0 mph 8.0 mph 85 % 0.00 in 0 W/m2
22:49 64.9 °F 60.3 °F 29.87 in WSW 4.0 mph 8.0 mph 85 % 0.00 in 0 W/m2
22:55 64.9 °F 60.6 °F 29.86 in SW 3.0 mph 6.0 mph 86 % 0.00 in 0 W/m2
23:00 64.9 °F 60.6 °F 29.87 in SW 4.0 mph 7.0 mph 86 % 0.00 in 0 W/m2
23:05 64.8 °F 60.5 °F 29.86 in SW 4.0 mph 8.0 mph 86 % 0.00 in 0 W/m2
23:10 64.8 °F 60.5 °F 29.86 in West 3.0 mph 8.0 mph 86 % 0.00 in 0 W/m2
23:15 64.8 °F 60.5 °F 29.86 in WNW 3.0 mph 7.0 mph 86 % 0.00 in 0 W/m2
23:20 64.6 °F 60.3 °F 29.86 in West 5.0 mph 9.0 mph 86 % 0.00 in 0 W/m2
23:25 64.6 °F 60.3 °F 29.86 in WSW 5.0 mph 9.0 mph 86 % 0.00 in 0 W/m2
23:30 64.6 °F 60.3 °F 29.86 in WSW 3.0 mph 8.0 mph 86 % 0.00 in 0 W/m2
23:35 64.6 °F 60.3 °F 29.86 in WSW 1.0 mph 6.0 mph 86 % 0.00 in 0 W/m2
23:40 64.6 °F 60.3 °F 29.86 in Calm   4.0 mph 86 % 0.00 in 0 W/m2
23:45 64.6 °F 60.3 °F 29.86 in Calm   2.0 mph 86 % 0.00 in 0 W/m2
23:50 64.6 °F 60.3 °F 29.86 in Calm   2.0 mph 86 % 0.00 in 0 W/m2
23:55 64.6 °F 60.3 °F 29.86 in Calm     86 % 0.00 in 0 W/m2
Delerius-Weather
Compliments of Weather Underground - 2.25 mb

Data updates at regular intervals.